Terminal Aerodrome Forecast
Issued by NWS

Home | Current Version | Previous Version | Text Only | Print | Product List | Glossary On
Versions: 1 2 3 4 5 6 7 8 9 10 11 12 13 14 15 16 17 18 19 20 21 22 23 24 25 26 27 28 29 30 31 32 33 34 35 36 37 38 39 40 41 42 43 44 45 46 47 48 49 50
000
FTUS41 KOKX 210529
TAFTEB
TAF
KTEB 210529Z 2106/2212 13004KT P6SM BKN040 BKN150
     FM210900 10004KT P6SM SCT025 OVC035
     FM211200 10008KT 5SM -RA BR BKN025 OVC035
     FM211900 09010G18KT 3SM -RA BR SCT008 OVC015
     FM212100 09011G19KT 2SM RA BR BKN008 OVC012
     FM220200 07011G18KT 1SM RA BR OVC006 WS020/08045KT
     FM220700 05007KT 1SM RA BR OVC006
     FM220900 36005KT 1SM RA BR OVC006=

USA.gov is the U.S. government's official web portal to all federal, state and local government web resources and services.